createdAt,value
2022-08-18T00:02:01.287Z,7.25
2022-08-18T00:04:36.635Z,8.45
2022-08-18T00:07:21.921Z,7.40
2022-08-18T00:09:48.781Z,6.68
2022-08-18T00:12:22.810Z,7.18
2022-08-18T00:14:50.540Z,6.68
2022-08-18T00:17:18.397Z,6.40
2022-08-18T00:19:47.760Z,6.30
2022-08-18T00:22:19.090Z,6.53
2022-08-18T00:24:49.449Z,5.88
2022-08-18T00:27:21.666Z,6.40
2022-08-18T00:29:50.219Z,5.40
2022-08-18T00:32:29.731Z,5.57
2022-08-18T00:34:57.115Z,5.50
2022-08-18T00:37:24.787Z,5.57
2022-08-18T00:39:53.245Z,5.05
2022-08-18T00:42:29.877Z,4.95
2022-08-18T00:45:01.985Z,4.50
2022-08-18T00:47:33.084Z,5.22
2022-08-18T00:50:15.492Z,5.68
2022-08-18T00:52:47.826Z,4.43
2022-08-18T00:55:18.112Z,4.65
2022-08-18T00:57:48.458Z,4.47
2022-08-18T01:00:15.483Z,4.80
2022-08-18T01:02:51.559Z,4.57
2022-08-18T01:05:40.814Z,4.07
2022-08-18T01:08:12.013Z,4.40
2022-08-18T01:10:40.560Z,4.88
2022-08-18T01:13:08.090Z,4.47
2022-08-18T01:15:35.222Z,4.13
2022-08-18T01:18:24.890Z,4.10
2022-08-18T01:21:21.304Z,3.53
2022-08-18T01:23:49.246Z,4.00
2022-08-18T01:26:18.056Z,3.70
2022-08-18T01:28:46.708Z,3.75
2022-08-18T01:31:32.602Z,4.07
2022-08-18T01:34:01.111Z,4.20
2022-08-18T01:36:29.528Z,3.38
2022-08-18T01:38:57.749Z,3.83
2022-08-18T01:41:30.170Z,4.13
2022-08-18T01:43:59.157Z,4.15
2022-08-18T01:46:27.983Z,4.00
2022-08-18T01:48:55.345Z,3.63
2022-08-18T01:51:38.843Z,3.88
2022-08-18T01:54:08.585Z,3.70
2022-08-18T01:56:36.747Z,3.60
2022-08-18T01:59:05.297Z,4.43
2022-08-18T02:01:36.412Z,3.60
2022-08-18T02:04:33.203Z,4.05
2022-08-18T02:06:56.151Z,3.80
2022-08-18T02:09:23.675Z,3.90
2022-08-18T02:11:53.113Z,4.32
2022-08-18T02:14:25.088Z,4.72
2022-08-18T02:17:02.431Z,3.65
2022-08-18T02:19:38.371Z,4.15
2022-08-18T02:22:07.782Z,4.40
2022-08-18T02:24:34.628Z,4.38
2022-08-18T02:27:01.691Z,4.03
2022-08-18T02:29:28.842Z,4.63
2022-08-18T02:31:55.812Z,3.78
2022-08-18T02:34:23.004Z,4.60
2022-08-18T02:36:49.977Z,4.22
2022-08-18T02:39:16.889Z,4.68
2022-08-18T02:41:44.256Z,4.43
2022-08-18T02:44:11.438Z,4.47
2022-08-18T02:46:38.639Z,4.05
2022-08-18T02:49:06.948Z,4.45
2022-08-18T02:51:34.134Z,4.63
2022-08-18T02:54:01.064Z,4.78
2022-08-18T02:56:33.749Z,4.97
2022-08-18T02:59:11.920Z,4.72
2022-08-18T03:01:41.354Z,4.35
2022-08-18T03:04:12.468Z,4.90
2022-08-18T03:06:39.609Z,4.50
2022-08-18T03:09:08.748Z,4.15
2022-08-18T03:11:36.679Z,3.92
2022-08-18T03:14:05.535Z,3.42
2022-08-18T03:16:34.187Z,3.50
2022-08-18T03:19:01.981Z,3.95
2022-08-18T03:21:31.843Z,3.92
2022-08-18T03:24:01.207Z,3.65
2022-08-18T03:26:31.050Z,4.07
2022-08-18T03:29:02.633Z,4.10
2022-08-18T03:31:31.494Z,4.25
2022-08-18T03:33:59.934Z,5.07
2022-08-18T03:36:34.864Z,4.88
2022-08-18T03:39:07.514Z,4.60
2022-08-18T03:41:57.495Z,5.30
2022-08-18T03:44:23.747Z,5.13
2022-08-18T03:46:51.157Z,5.22
2022-08-18T03:49:20.880Z,5.78
2022-08-18T03:51:48.709Z,4.93
2022-08-18T03:54:18.675Z,5.10
2022-08-18T03:56:47.478Z,4.47
2022-08-18T03:59:20.260Z,4.78
2022-08-18T04:01:49.938Z,4.53
2022-08-18T04:04:20.357Z,4.50
2022-08-18T04:07:04.695Z,5.07
2022-08-18T04:09:33.165Z,4.05
2022-08-18T04:12:16.475Z,4.13
2022-08-18T04:14:48.039Z,3.75
2022-08-18T04:17:24.821Z,4.20
2022-08-18T04:19:53.197Z,4.13
2022-08-18T04:22:20.229Z,4.20
2022-08-18T04:24:49.660Z,4.60
2022-08-18T04:27:17.767Z,4.10
2022-08-18T04:29:44.546Z,4.60
2022-08-18T04:32:11.545Z,4.75
2022-08-18T04:34:38.399Z,4.13
2022-08-18T04:37:05.191Z,4.20
2022-08-18T04:39:32.113Z,4.65
2022-08-18T04:41:59.418Z,4.35
2022-08-18T04:44:26.440Z,4.85
2022-08-18T04:46:54.940Z,4.78
2022-08-18T04:49:25.831Z,5.00
2022-08-18T04:52:26.764Z,5.22
2022-08-18T04:55:01.675Z,4.50
2022-08-18T04:57:29.254Z,5.63
2022-08-18T05:00:00.746Z,4.70
2022-08-18T05:02:28.027Z,5.00
2022-08-18T05:04:54.779Z,5.15
2022-08-18T05:07:23.056Z,4.88
2022-08-18T05:09:52.013Z,4.40
2022-08-18T05:12:18.937Z,4.82
2022-08-18T05:14:47.940Z,4.57
2022-08-18T05:17:16.312Z,4.32
2022-08-18T05:19:46.418Z,4.57
2022-08-18T05:22:18.402Z,4.70
2022-08-18T05:24:45.648Z,4.97
2022-08-18T05:27:13.493Z,5.15
2022-08-18T05:29:45.536Z,4.97
2022-08-18T05:32:38.274Z,4.70
2022-08-18T05:35:12.761Z,4.35
2022-08-18T05:37:57.883Z,5.35
2022-08-18T05:40:26.238Z,4.90
2022-08-18T05:42:56.093Z,5.28
2022-08-18T05:45:23.993Z,4.53
2022-08-18T05:47:51.500Z,5.20
2022-08-18T05:50:20.395Z,4.82
2022-08-18T05:53:14.177Z,4.72
2022-08-18T05:55:59.615Z,4.30
2022-08-18T05:58:36.655Z,4.57
2022-08-18T06:01:15.721Z,4.55
2022-08-18T06:03:49.065Z,4.05
2022-08-18T06:06:24.439Z,4.22
2022-08-18T06:09:05.712Z,4.15
2022-08-18T06:11:32.637Z,3.70
2022-08-18T06:14:01.395Z,3.67
2022-08-18T06:17:09.945Z,3.50
2022-08-18T06:20:10.153Z,3.85
2022-08-18T06:23:08.254Z,3.97
2022-08-18T06:25:43.273Z,3.60
2022-08-18T06:28:15.789Z,3.90
2022-08-18T06:30:42.640Z,4.00
2022-08-18T06:33:42.711Z,4.00
2022-08-18T06:36:21.698Z,3.65
2022-08-18T06:39:22.487Z,4.13
2022-08-18T06:41:51.244Z,4.13
2022-08-18T06:44:25.610Z,3.78
2022-08-18T06:47:17.400Z,3.80
2022-08-18T06:50:07.350Z,3.55
2022-08-18T06:52:37.905Z,3.65
2022-08-18T06:55:15.974Z,3.40
2022-08-18T06:57:58.544Z,3.90
2022-08-18T07:00:32.831Z,3.50
2022-08-18T07:03:12.995Z,3.47
2022-08-18T07:05:56.893Z,3.13
2022-08-18T07:08:43.132Z,3.75
2022-08-18T07:11:22.678Z,3.17
2022-08-18T07:14:09.428Z,3.25
2022-08-18T07:19:29.802Z,2.88
2022-08-18T07:22:13.575Z,2.90
2022-08-18T07:24:45.034Z,2.40
2022-08-18T07:27:19.189Z,3.13
2022-08-18T07:30:00.641Z,2.70
2022-08-18T07:32:35.485Z,2.50
2022-08-18T07:35:07.019Z,2.45
2022-08-18T07:37:42.961Z,2.65
2022-08-18T07:40:20.829Z,3.55
2022-08-18T07:43:02.597Z,2.40
2022-08-18T07:45:44.433Z,2.58
2022-08-18T07:48:40.633Z,2.20
2022-08-18T07:51:19.529Z,2.58
2022-08-18T07:54:45.317Z,2.40
2022-08-18T07:57:20.020Z,2.60
2022-08-18T08:00:01.854Z,2.55
2022-08-18T08:02:50.139Z,2.90
2022-08-18T08:05:39.689Z,2.60
2022-08-18T08:08:24.972Z,2.03
2022-08-18T08:11:17.100Z,1.90
2022-08-18T08:13:55.182Z,1.70
2022-08-18T08:16:46.510Z,1.60
2022-08-18T08:19:42.446Z,1.95
2022-08-18T08:22:16.151Z,2.00
2022-08-18T08:25:13.554Z,1.92
2022-08-18T08:28:07.663Z,1.60
2022-08-18T08:30:44.405Z,2.05
2022-08-18T08:33:26.857Z,2.75
2022-08-18T08:36:04.260Z,1.92
2022-08-18T08:39:00.338Z,2.20
2022-08-18T08:41:35.475Z,2.15
2022-08-18T08:44:14.983Z,2.40
2022-08-18T08:47:02.484Z,2.15
2022-08-18T08:49:54.780Z,2.17
2022-08-18T08:52:50.865Z,2.22
2022-08-18T08:55:25.500Z,2.13
2022-08-18T08:58:03.057Z,1.90
2022-08-18T09:00:31.067Z,1.60
2022-08-18T09:03:19.571Z,1.80
2022-08-18T09:06:00.267Z,1.90
2022-08-18T09:08:42.839Z,1.98
2022-08-18T09:11:40.343Z,1.92
2022-08-18T09:14:22.012Z,2.00
2022-08-18T09:17:13.746Z,2.03
2022-08-18T09:20:02.812Z,1.92
2022-08-18T09:22:44.321Z,2.35
2022-08-18T09:25:33.007Z,2.08
2022-08-18T09:28:14.283Z,1.75
2022-08-18T09:30:47.742Z,2.28
2022-08-18T09:33:24.560Z,1.80
2022-08-18T09:36:19.916Z,1.90
2022-08-18T09:39:18.514Z,2.50
2022-08-18T09:42:03.346Z,2.40
2022-08-18T09:44:48.649Z,2.38
2022-08-18T09:47:22.301Z,1.92
2022-08-18T09:49:55.896Z,2.38
2022-08-18T09:52:23.956Z,1.88
2022-08-18T09:54:51.982Z,1.90
2022-08-18T09:57:24.227Z,2.13
2022-08-18T09:59:55.450Z,1.85
2022-08-18T10:02:37.294Z,1.80
2022-08-18T10:05:15.989Z,1.98
2022-08-18T10:08:07.250Z,1.95
2022-08-18T10:11:00.202Z,1.60
2022-08-18T10:13:38.979Z,1.60
2022-08-18T10:16:57.510Z,1.67
2022-08-18T10:19:52.533Z,1.75
2022-08-18T10:22:43.269Z,1.55
2022-08-18T10:25:22.168Z,2.05
2022-08-18T10:27:56.537Z,1.63
2022-08-18T10:30:31.152Z,1.90
2022-08-18T10:33:17.251Z,1.50
2022-08-18T10:36:02.297Z,1.85
2022-08-18T10:38:41.233Z,1.67
2022-08-18T10:41:22.708Z,1.50
2022-08-18T10:43:57.206Z,1.40
2022-08-18T10:46:31.980Z,1.85
2022-08-18T10:48:59.515Z,1.63
2022-08-18T10:51:58.040Z,1.40
2022-08-18T10:54:30.487Z,1.50
2022-08-18T10:57:34.082Z,1.48
2022-08-18T11:00:18.741Z,2.10
2022-08-18T11:03:01.911Z,1.90
2022-08-18T11:05:32.992Z,1.75
2022-08-18T11:11:24.788Z,1.83
2022-08-18T11:13:54.377Z,1.88
2022-08-18T11:16:47.785Z,1.90
2022-08-18T11:19:17.076Z,1.75
2022-08-18T11:21:51.699Z,1.55
2022-08-18T11:24:28.409Z,1.70
2022-08-18T11:26:57.031Z,2.05
2022-08-18T11:29:38.531Z,1.70
2022-08-18T11:32:22.007Z,1.83
2022-08-18T11:34:59.588Z,1.48
2022-08-18T11:38:00.471Z,1.20
2022-08-18T11:41:18.872Z,1.48
2022-08-18T11:43:48.410Z,1.40
2022-08-18T11:46:28.208Z,1.30
2022-08-18T11:48:59.087Z,1.48
2022-08-18T11:51:32.436Z,1.38
2022-08-18T11:54:05.105Z,1.58
2022-08-18T11:56:38.181Z,1.30
2022-08-18T12:02:25.975Z,1.40
2022-08-18T12:04:57.902Z,1.80
2022-08-18T12:07:32.155Z,1.30
2022-08-18T12:10:18.350Z,1.42
2022-08-18T12:12:50.021Z,1.40
2022-08-18T12:15:24.596Z,1.40
2022-08-18T12:17:53.619Z,1.40
2022-08-18T12:20:22.698Z,1.40
2022-08-18T12:22:49.987Z,1.33
2022-08-18T12:25:25.189Z,1.63
2022-08-18T12:27:55.768Z,1.40
2022-08-18T12:30:23.397Z,1.40
2022-08-18T12:32:56.270Z,1.38
2022-08-18T12:35:27.704Z,1.50
2022-08-18T12:40:44.245Z,1.25
2022-08-18T12:43:11.525Z,1.30
2022-08-18T12:45:38.996Z,1.42
2022-08-18T12:48:07.179Z,1.55
2022-08-18T12:50:50.026Z,1.27
2022-08-18T12:53:30.683Z,1.48
2022-08-18T12:56:30.371Z,1.23
2022-08-18T12:59:00.990Z,1.38
2022-08-18T13:01:32.376Z,1.20
2022-08-18T13:04:12.842Z,1.23
2022-08-18T13:06:58.799Z,1.40
2022-08-18T13:09:35.786Z,1.10
2022-08-18T13:12:18.443Z,1.17
2022-08-18T13:14:47.380Z,1.13
2022-08-18T13:17:32.861Z,1.30
2022-08-18T13:20:13.815Z,1.30
2022-08-18T13:22:41.023Z,1.20
2022-08-18T13:25:13.133Z,1.25
2022-08-18T13:28:00.677Z,1.38
2022-08-18T13:30:30.981Z,1.00
2022-08-18T13:33:02.413Z,1.08
2022-08-18T13:35:37.870Z,1.20
2022-08-18T13:38:12.438Z,1.38
2022-08-18T13:40:47.107Z,1.10
2022-08-18T13:43:17.480Z,0.98
2022-08-18T13:45:52.903Z,1.20
2022-08-18T13:48:20.621Z,1.40
2022-08-18T13:50:47.636Z,1.35
2022-08-18T13:53:21.886Z,1.45
2022-08-18T13:55:49.411Z,1.30
2022-08-18T13:58:20.561Z,1.20
2022-08-18T14:00:54.338Z,0.98
2022-08-18T14:03:42.228Z,1.30
2022-08-18T14:06:13.056Z,1.30
2022-08-18T14:08:40.579Z,1.00
2022-08-18T14:11:08.970Z,1.70
2022-08-18T14:13:38.204Z,1.40
2022-08-18T14:16:16.220Z,1.23
2022-08-18T14:19:09.688Z,1.30
2022-08-18T14:22:06.802Z,1.20
2022-08-18T14:24:58.392Z,1.10
2022-08-18T14:27:35.093Z,1.23
2022-08-18T14:30:09.315Z,1.58
2022-08-18T14:32:49.186Z,1.02
2022-08-18T14:35:33.223Z,1.20
2022-08-18T14:38:07.147Z,1.30
2022-08-18T14:40:38.805Z,1.17
2022-08-18T14:43:14.693Z,1.20
2022-08-18T14:45:48.888Z,1.27
2022-08-18T14:48:22.257Z,1.50
2022-08-18T14:50:55.320Z,1.40
2022-08-18T14:53:25.909Z,1.63
2022-08-18T14:55:54.720Z,1.50
2022-08-18T14:58:27.799Z,1.20
2022-08-18T15:00:56.839Z,1.55
2022-08-18T15:03:28.399Z,1.33
2022-08-18T15:05:59.618Z,1.40
2022-08-18T15:08:26.685Z,1.60
2022-08-18T15:10:54.196Z,1.10
2022-08-18T15:13:20.981Z,1.33
2022-08-18T15:15:53.686Z,1.50
2022-08-18T15:18:22.808Z,1.65
2022-08-18T15:21:10.189Z,1.40
2022-08-18T15:23:57.481Z,1.42
2022-08-18T15:26:26.447Z,1.20
2022-08-18T15:29:00.236Z,1.35
2022-08-18T15:34:14.766Z,1.20
2022-08-18T15:36:48.270Z,1.15
2022-08-18T15:39:15.800Z,1.30
2022-08-18T15:41:46.650Z,1.30
2022-08-18T15:44:20.933Z,1.40
2022-08-18T15:46:53.449Z,1.50
2022-08-18T15:49:21.924Z,1.17
2022-08-18T15:51:50.020Z,1.20
2022-08-18T15:54:19.750Z,1.23
2022-08-18T15:56:57.870Z,1.40
2022-08-18T15:59:39.619Z,1.10
2022-08-18T16:02:11.787Z,1.23
2022-08-18T16:04:45.160Z,1.38
2022-08-18T16:07:12.030Z,1.75
2022-08-18T16:09:38.902Z,1.42
2022-08-18T16:12:08.679Z,1.50
2022-08-18T16:14:41.288Z,1.67
2022-08-18T16:17:09.477Z,1.50
2022-08-18T16:19:44.964Z,1.40
2022-08-18T16:22:11.863Z,1.40
2022-08-18T16:24:38.972Z,1.60
2022-08-18T16:27:09.279Z,1.63
2022-08-18T16:29:36.518Z,1.73
2022-08-18T16:32:03.734Z,1.73
2022-08-18T16:34:31.354Z,1.42
2022-08-18T16:36:58.196Z,1.60
2022-08-18T16:39:24.922Z,1.73
2022-08-18T16:41:51.719Z,1.40
2022-08-18T16:44:19.384Z,1.60
2022-08-18T16:46:46.634Z,1.70
2022-08-18T16:49:13.461Z,1.50
2022-08-18T16:51:40.897Z,1.90
2022-08-18T16:54:07.719Z,1.58
2022-08-18T16:56:36.614Z,1.90
2022-08-18T16:59:22.699Z,1.77
2022-08-18T17:02:07.896Z,1.73
2022-08-18T17:04:34.842Z,1.60
2022-08-18T17:07:05.877Z,1.75
2022-08-18T17:09:33.993Z,1.65
2022-08-18T17:12:01.482Z,1.75
2022-08-18T17:14:30.922Z,1.88
2022-08-18T17:16:58.913Z,1.55
2022-08-18T17:19:30.058Z,1.60
2022-08-18T17:21:57.190Z,1.75
2022-08-18T17:24:31.160Z,1.75
2022-08-18T17:27:26.235Z,1.52
2022-08-18T17:30:03.361Z,1.70
2022-08-18T17:32:46.656Z,1.65
2022-08-18T17:35:29.295Z,1.80
2022-08-18T17:38:18.985Z,1.67
2022-08-18T17:40:49.946Z,1.50
2022-08-18T17:43:25.788Z,1.67
2022-08-18T17:45:57.400Z,1.70
2022-08-18T17:48:28.853Z,1.80
2022-08-18T17:51:34.068Z,1.65
2022-08-18T17:54:38.320Z,1.65
2022-08-18T17:57:16.428Z,1.45
2022-08-18T18:00:11.414Z,2.10
2022-08-18T18:02:45.167Z,1.45
2022-08-18T18:05:15.118Z,1.55
2022-08-18T18:07:45.203Z,1.58
2022-08-18T18:10:25.070Z,1.60
2022-08-18T18:13:11.081Z,1.67
2022-08-18T18:15:43.374Z,1.48
2022-08-18T18:18:41.980Z,1.67
2022-08-18T18:21:14.753Z,1.70
2022-08-18T18:23:46.295Z,1.88
2022-08-18T18:26:37.358Z,1.90
2022-08-18T18:29:33.274Z,1.63
2022-08-18T18:32:05.579Z,1.60
2022-08-18T18:34:44.296Z,1.80
2022-08-18T18:37:29.036Z,1.80
2022-08-18T18:40:02.096Z,1.83
2022-08-18T18:42:36.452Z,1.90
2022-08-18T18:45:13.705Z,1.77
2022-08-18T18:48:51.064Z,1.90
2022-08-18T18:51:19.592Z,1.88
2022-08-18T18:54:06.605Z,1.95
2022-08-18T18:56:49.464Z,2.40
2022-08-18T18:59:40.747Z,2.13
2022-08-18T19:02:13.694Z,2.30
2022-08-18T19:05:15.833Z,2.60
2022-08-18T19:07:51.519Z,2.50
2022-08-18T19:10:30.303Z,2.70
2022-08-18T19:13:08.413Z,2.53
2022-08-18T19:15:38.635Z,2.30
2022-08-18T19:18:21.720Z,2.97
2022-08-18T19:22:03.940Z,2.53
2022-08-18T19:23:55.590Z,2.42
2022-08-18T19:26:28.344Z,2.67
2022-08-18T19:29:12.433Z,3.70
2022-08-18T19:32:07.324Z,2.50
2022-08-18T19:34:51.650Z,2.70
2022-08-18T19:37:27.422Z,2.28
2022-08-18T19:40:27.163Z,2.80
2022-08-18T19:43:38.984Z,2.60
2022-08-18T19:46:12.630Z,3.25
2022-08-18T19:48:51.518Z,2.80
2022-08-18T19:51:40.810Z,2.42
2022-08-18T19:54:53.290Z,2.80
2022-08-18T19:57:40.667Z,2.55
2022-08-18T20:00:18.245Z,2.70
2022-08-18T20:03:04.902Z,2.50
2022-08-18T20:05:52.812Z,2.42
2022-08-18T20:08:28.511Z,2.97
2022-08-18T20:11:15.155Z,3.00
2022-08-18T20:13:44.659Z,3.10
2022-08-18T20:16:35.533Z,2.57
2022-08-18T20:19:48.530Z,2.80
2022-08-18T20:22:22.033Z,2.70
2022-08-18T20:25:11.312Z,2.97
2022-08-18T20:27:58.085Z,3.00
2022-08-18T20:30:48.366Z,4.10
2022-08-18T20:33:24.260Z,4.15
2022-08-18T20:36:15.280Z,3.75
2022-08-18T20:38:53.085Z,3.53
2022-08-18T20:41:19.853Z,4.10
2022-08-18T20:43:50.289Z,3.90
2022-08-18T20:46:43.486Z,3.90
2022-08-18T20:49:46.743Z,4.20
2022-08-18T20:52:37.301Z,4.20
2022-08-18T20:55:24.427Z,3.73
2022-08-18T20:57:55.636Z,3.87
2022-08-18T21:00:26.926Z,3.90
2022-08-18T21:02:59.287Z,4.20
2022-08-18T21:05:37.938Z,3.80
2022-08-18T21:08:16.747Z,3.67
2022-08-18T21:10:54.137Z,3.20
2022-08-18T21:13:47.697Z,3.30
2022-08-18T21:16:37.679Z,3.35
2022-08-18T21:19:14.455Z,3.67
2022-08-18T21:21:48.993Z,3.77
2022-08-18T21:24:36.140Z,3.50
2022-08-18T21:27:07.461Z,3.50
2022-08-18T21:29:51.417Z,3.00
2022-08-18T21:32:31.445Z,3.17
2022-08-18T21:35:07.984Z,3.77
2022-08-18T21:37:41.254Z,3.63
2022-08-18T21:40:08.547Z,3.03
2022-08-18T21:42:45.907Z,3.30
2022-08-18T21:45:18.552Z,3.27
2022-08-18T21:47:51.656Z,3.40
2022-08-18T21:50:24.698Z,3.60
2022-08-18T21:53:05.359Z,3.00
2022-08-18T21:55:50.066Z,3.50
2022-08-18T21:58:33.886Z,2.83
2022-08-18T22:01:10.204Z,2.90
2022-08-18T22:04:02.857Z,2.70
2022-08-18T22:06:40.951Z,3.20
2022-08-18T22:09:29.158Z,3.30
2022-08-18T22:12:33.331Z,3.13
2022-08-18T22:15:17.729Z,2.70
2022-08-18T22:17:48.275Z,3.10
2022-08-18T22:20:33.691Z,2.77
2022-08-18T22:23:34.658Z,2.80
2022-08-18T22:26:16.573Z,2.60
2022-08-18T22:28:58.326Z,2.80
2022-08-18T22:31:36.732Z,2.90
2022-08-18T22:34:11.026Z,2.70
2022-08-18T22:36:40.846Z,3.30
2022-08-18T22:39:12.456Z,2.87
2022-08-18T22:41:41.609Z,3.07
2022-08-18T22:44:08.860Z,3.13
2022-08-18T22:46:36.946Z,3.33
2022-08-18T22:49:04.774Z,3.20
2022-08-18T22:51:33.356Z,3.20
2022-08-18T22:54:00.235Z,2.80
2022-08-18T22:56:34.509Z,3.10
2022-08-18T22:59:13.478Z,3.43
2022-08-18T23:01:45.228Z,3.20
2022-08-18T23:04:12.508Z,2.80
2022-08-18T23:06:39.295Z,3.40
2022-08-18T23:09:06.126Z,3.20
2022-08-18T23:11:33.534Z,3.37
2022-08-18T23:14:02.203Z,3.20
2022-08-18T23:16:31.340Z,3.00
2022-08-18T23:19:01.880Z,3.37
2022-08-18T23:21:35.455Z,3.40
2022-08-18T23:24:07.369Z,3.80
2022-08-18T23:26:34.610Z,3.97
2022-08-18T23:29:03.507Z,4.10
2022-08-18T23:31:31.475Z,5.27
2022-08-18T23:34:00.604Z,5.20
2022-08-18T23:36:29.541Z,5.77
2022-08-18T23:38:56.855Z,5.93
2022-08-18T23:41:23.803Z,5.57
2022-08-18T23:43:51.202Z,5.53
2022-08-18T23:46:23.597Z,5.13
2022-08-18T23:48:52.728Z,5.27
2022-08-18T23:51:32.021Z,4.73
2022-08-18T23:54:02.208Z,4.43
2022-08-18T23:56:30.581Z,4.37
2022-08-18T23:58:58.535Z,4.63
